Time;durP1;ratioP1;P1;durP2;ratioP2;P2;SDS_P1;SDS_P2;PMS_P1;PMS_P2;Temp;Humidity;BMP_temperature;BMP_pressure;BME280_temperature;BME280_humidity;BME280_pressure;Samples;Min_cycle;Max_cycle;Signal;HPM_P1;HPM_P2
2020/12/21 00:01:21;;;;;;;;;;;;;;;;;;5090561;28;20844;-85
2020/12/21 00:03:47;;;;;;;;;;;;;;;;;;5077492;28;20481;-85
2020/12/21 00:06:15;;;;;;;;;;;;;;;;;;5088004;28;20372;-85
2020/12/21 00:08:41;;;;;;;;;;;;;;;;;;5078988;28;20398;-85
2020/12/21 00:11:07;;;;;;;;;;;;;;;;;;5096199;28;20426;-84
2020/12/21 00:13:42;;;;;;;;;;;;;;;;;;5092566;28;20865;-85
2020/12/21 00:16:08;;;;;;;;;;;;;;;;;;5093934;28;20402;-84
2020/12/21 00:18:35;;;;;;;;;;;;;;;;;;5106831;28;20401;-85
2020/12/21 00:21:01;;;;;;;;;;;;;;;;;;5101073;28;20383;-85
2020/12/21 00:23:28;;;;;;;;;;;;;;;;;;5089175;28;20375;-84
2020/12/21 00:25:54;;;;;;;;;;;;;;;;;;5098244;28;20500;-84
2020/12/21 00:28:21;;;;;;;;;;;;;;;;;;5097427;28;20809;-84
2020/12/21 00:30:47;;;;;;;;;;;;;;;;;;5097987;28;20492;-84
2020/12/21 00:33:13;;;;;;;;;;;;;;;;;;5091141;28;20386;-84
2020/12/21 00:35:40;;;;;;;;;;;;;;;;;;5077787;28;20410;-84
2020/12/21 00:38:07;;;;;;;;;;;;;;;;;;5076970;28;20402;-85
2020/12/21 00:40:33;;;;;;;;;;;;;;;;;;5086670;28;20860;-84
2020/12/21 00:43:00;;;;;;;;;;;;;;;;;;5094742;28;20387;-84
2020/12/21 00:45:26;;;;;;;;;;;;;;;;;;5078524;28;20972;-85
2020/12/21 00:47:52;;;;;;;;;;;;;;;;;;5085898;28;20415;-86
2020/12/21 00:50:19;;;;;;;;;;;;;;;;;;5110750;28;21277;-85
2020/12/21 00:52:45;;;;;;;;;;;;;;;;;;5100062;28;21630;-85
2020/12/21 00:55:11;;;;;;;;;;;;;;;;;;5087250;28;21528;-85
2020/12/21 00:57:38;;;;;;;;;;;;;;;;;;5098473;28;21774;-85
2020/12/21 01:00:04;;;;;;;;;;;;;;;;;;5093976;28;21369;-85
2020/12/21 01:02:31;;;;;;;;;;;;;;;;;;5098696;28;21710;-85
2020/12/21 01:04:57;;;;;;;;;;;;;;;;;;5081537;28;21447;-85
2020/12/21 01:07:24;;;;;;;;;;;;;;;;;;5083845;28;21376;-86
2020/12/21 01:09:50;;;;;;;;;;;;;;;;;;5085793;28;21153;-86
2020/12/21 01:12:16;;;;;;;;;;;;;;;;;;5097207;28;21490;-85
2020/12/21 01:14:43;;;;;;;;;;;;;;;;;;5090474;28;21482;-85
2020/12/21 01:17:10;;;;;;;;;;;;;;;;;;5100248;28;20389;-86
2020/12/21 01:19:36;;;;;;;;;;;;;;;;;;5102466;28;20410;-85
2020/12/21 01:22:02;;;;;;;;;;;;;;;;;;5111897;28;20398;-85
2020/12/21 01:24:29;;;;;;;;;;;;;;;;;;5115409;28;20395;-85
2020/12/21 01:26:55;;;;;;;;;;;;;;;;;;5100280;28;20407;-84
2020/12/21 01:29:22;;;;;;;;;;;;;;;;;;5100275;28;20379;-84
2020/12/21 01:31:48;;;;;;;;;;;;;;;;;;5097078;28;20401;-84
2020/12/21 01:34:15;;;;;;;;;;;;;;;;;;5079069;28;20441;-84
2020/12/21 01:36:41;;;;;;;;;;;;;;;;;;5078853;28;20394;-84
2020/12/21 01:39:08;;;;;;;;;;;;;;;;;;5078508;28;20386;-84
2020/12/21 01:41:34;;;;;;;;;;;;;;;;;;5078577;28;20386;-84
2020/12/21 01:44:00;;;;;;;;;;;;;;;;;;5079481;28;20378;-84
2020/12/21 01:46:27;;;;;;;;;;;;;;;;;;5078348;28;20397;-84
2020/12/21 01:48:53;;;;;;;;;;;;;;;;;;5087322;28;20421;-84
2020/12/21 01:51:19;;;;;;;;;;;;;;;;;;5097704;28;20374;-83
2020/12/21 01:53:46;;;;;;;;;;;;;;;;;;5094933;28;20386;-83
2020/12/21 01:56:12;;;;;;;;;;;;;;;;;;5079748;28;20424;-83
2020/12/21 01:58:39;;;;;;;;;;;;;;;;;;5086604;28;20403;-84
2020/12/21 02:01:05;;;;;;;;;;;;;;;;;;5085834;28;20731;-84
2020/12/21 02:03:31;;;;;;;;;;;;;;;;;;5098695;28;20436;-84
2020/12/21 02:05:58;;;;;;;;;;;;;;;;;;5099569;28;20387;-84
2020/12/21 02:08:24;;;;;;;;;;;;;;;;;;5100628;28;20395;-84
2020/12/21 02:10:51;;;;;;;;;;;;;;;;;;5092361;28;20385;-84
2020/12/21 02:13:17;;;;;;;;;;;;;;;;;;5095363;28;20394;-84
2020/12/21 02:15:43;;;;;;;;;;;;;;;;;;5087601;28;20395;-84
2020/12/21 02:18:10;;;;;;;;;;;;;;;;;;5100093;28;20913;-84
2020/12/21 02:20:36;;;;;;;;;;;;;;;;;;5082247;28;20382;-84
2020/12/21 02:23:02;;;;;;;;;;;;;;;;;;5094935;28;20375;-84
2020/12/21 02:25:29;;;;;;;;;;;;;;;;;;5082890;28;20394;-85
2020/12/21 02:27:55;;;;;;;;;;;;;;;;;;5083034;28;20402;-84
2020/12/21 02:30:22;;;;;;;;;;;;;;;;;;5090746;28;20386;-84
2020/12/21 02:32:48;;;;;;;;;;;;;;;;;;5082316;28;20453;-85
2020/12/21 02:35:15;;;;;;;;;;;;;;;;;;5088146;28;20391;-85
2020/12/21 02:37:41;;;;;;;;;;;;;;;;;;5103850;28;20403;-84
2020/12/21 02:40:07;;;;;;;;;;;;;;;;;;5100531;28;20386;-84
2020/12/21 02:42:34;;;;;;;;;;;;;;;;;;5085131;28;20390;-84
2020/12/21 02:45:00;;;;;;;;;;;;;;;;;;5093523;28;20371;-83
2020/12/21 02:47:27;;;;;;;;;;;;;;;;;;5096534;28;20390;-85
2020/12/21 02:49:53;;;;;;;;;;;;;;;;;;5098617;28;20385;-85
2020/12/21 02:52:20;;;;;;;;;;;;;;;;;;5116737;28;20384;-84
2020/12/21 02:54:47;;;;;;;;;;;;;;;;;;5117023;28;20383;-84
2020/12/21 02:57:13;;;;;;;;;;;;;;;;;;5098943;28;20386;-85
2020/12/21 02:59:39;;;;;;;;;;;;;;;;;;5090676;28;20416;-83
2020/12/21 03:02:06;;;;;;;;;;;;;;;;;;5095966;28;20459;-84
2020/12/21 03:04:33;;;;;;;;;;;;;;;;;;5098433;28;20375;-84
2020/12/21 03:07:00;;;;;;;;;;;;;;;;;;5103151;28;20548;-84
2020/12/21 03:09:26;;;;;;;;;;;;;;;;;;5117582;28;20367;-86
2020/12/21 03:11:52;;;;;;;;;;;;;;;;;;5097707;28;20390;-83
2020/12/21 03:14:19;;;;;;;;;;;;;;;;;;5100036;28;20409;-84
2020/12/21 03:16:45;;;;;;;;;;;;;;;;;;5086420;28;20394;-84
2020/12/21 03:19:12;;;;;;;;;;;;;;;;;;5086356;28;20765;-84
2020/12/21 03:21:38;;;;;;;;;;;;;;;;;;5086823;28;20392;-84
2020/12/21 03:24:04;;;;;;;;;;;;;;;;;;5085371;28;20381;-83
2020/12/21 03:26:31;;;;;;;;;;;;;;;;;;5085291;28;20427;-84
2020/12/21 03:28:57;;;;;;;;;;;;;;;;;;5085233;28;20371;-83
2020/12/21 03:31:23;;;;;;;;;;;;;;;;;;5084455;28;20861;-83
2020/12/21 03:33:50;;;;;;;;;;;;;;;;;;5084481;28;20386;-83
2020/12/21 03:36:16;;;;;;;;;;;;;;;;;;5084872;28;20764;-85
2020/12/21 03:38:42;;;;;;;;;;;;;;;;;;5084009;28;20463;-85
2020/12/21 03:41:09;;;;;;;;;;;;;;;;;;5085540;28;20405;-85
2020/12/21 03:43:35;;;;;;;;;;;;;;;;;;5085179;28;20385;-85
2020/12/21 03:46:02;;;;;;;;;;;;;;;;;;5083760;28;20382;-84
2020/12/21 03:48:28;;;;;;;;;;;;;;;;;;5084070;28;20402;-84
2020/12/21 03:50:54;;;;;;;;;;;;;;;;;;5083511;28;20390;-85
2020/12/21 03:53:21;;;;;;;;;;;;;;;;;;5083107;28;20378;-85
2020/12/21 03:55:47;;;;;;;;;;;;;;;;;;5082859;28;20398;-84
2020/12/21 03:58:14;;;;;;;;;;;;;;;;;;5081983;28;20406;-84
2020/12/21 04:00:40;;;;;;;;;;;;;;;;;;5083997;28;20857;-84
2020/12/21 04:03:07;;;;;;;;;;;;;;;;;;5085567;28;20382;-84
2020/12/21 04:05:33;;;;;;;;;;;;;;;;;;5085038;28;20480;-84
2020/12/21 04:08:00;;;;;;;;;;;;;;;;;;5084533;28;20397;-84
2020/12/21 04:10:26;;;;;;;;;;;;;;;;;;5085275;28;20382;-84
2020/12/21 04:12:52;;;;;;;;;;;;;;;;;;5084436;28;20431;-84
2020/12/21 04:15:19;;;;;;;;;;;;;;;;;;5084537;28;20413;-86
2020/12/21 04:17:45;;;;;;;;;;;;;;;;;;5082977;28;20410;-84
2020/12/21 04:20:11;;;;;;;;;;;;;;;;;;5084593;28;20386;-84
2020/12/21 04:22:38;;;;;;;;;;;;;;;;;;5083948;28;20393;-85
2020/12/21 04:25:04;;;;;;;;;;;;;;;;;;5084853;28;20382;-85
2020/12/21 04:27:31;;;;;;;;;;;;;;;;;;5085100;28;20456;-85
2020/12/21 04:29:57;;;;;;;;;;;;;;;;;;5090545;28;20381;-85
2020/12/21 04:32:23;;;;;;;;;;;;;;;;;;5092388;28;20374;-85
2020/12/21 04:34:50;;;;;;;;;;;;;;;;;;5084069;28;20410;-85
2020/12/21 04:37:16;;;;;;;;;;;;;;;;;;5084747;28;20409;-84
2020/12/21 04:39:43;;;;;;;;;;;;;;;;;;5085130;28;20386;-85
2020/12/21 04:42:09;;;;;;;;;;;;;;;;;;5084492;28;20770;-84
2020/12/21 04:44:35;;;;;;;;;;;;;;;;;;5085304;28;20386;-84
2020/12/21 04:47:02;;;;;;;;;;;;;;;;;;5085062;28;20405;-84
2020/12/21 04:49:28;;;;;;;;;;;;;;;;;;5085195;28;20390;-84
2020/12/21 04:51:54;;;;;;;;;;;;;;;;;;5084868;28;20378;-84
2020/12/21 04:54:21;;;;;;;;;;;;;;;;;;5085240;28;20378;-84
2020/12/21 04:56:47;;;;;;;;;;;;;;;;;;5085954;28;20905;-84
2020/12/21 04:59:13;;;;;;;;;;;;;;;;;;5085939;28;20382;-84
2020/12/21 05:01:40;;;;;;;;;;;;;;;;;;5086599;28;20390;-84
2020/12/21 05:04:06;;;;;;;;;;;;;;;;;;5087069;28;20382;-84
2020/12/21 05:06:33;;;;;;;;;;;;;;;;;;5088500;28;20430;-85
2020/12/21 05:09:00;;;;;;;;;;;;;;;;;;5107841;28;20383;-84
2020/12/21 05:11:27;;;;;;;;;;;;;;;;;;5118833;28;20371;-85
2020/12/21 05:13:53;;;;;;;;;;;;;;;;;;5118875;28;20359;-84
2020/12/21 05:16:19;;;;;;;;;;;;;;;;;;5112588;28;20399;-85
2020/12/21 05:18:46;;;;;;;;;;;;;;;;;;5104945;28;20392;-83
2020/12/21 05:21:12;;;;;;;;;;;;;;;;;;5097410;28;20372;-83
2020/12/21 05:23:39;;;;;;;;;;;;;;;;;;5079247;28;20865;-83
2020/12/21 05:26:05;;;;;;;;;;;;;;;;;;5078158;28;20386;-84
2020/12/21 05:28:31;;;;;;;;;;;;;;;;;;5081800;28;20413;-84
2020/12/21 05:30:58;;;;;;;;;;;;;;;;;;5092953;28;20378;-85
2020/12/21 05:33:24;;;;;;;;;;;;;;;;;;5106176;28;20392;-84
2020/12/21 05:35:51;;;;;;;;;;;;;;;;;;5108803;28;20425;-84
2020/12/21 05:38:17;;;;;;;;;;;;;;;;;;5094821;28;20840;-84
2020/12/21 05:40:43;;;;;;;;;;;;;;;;;;5084333;28;20381;-84
2020/12/21 05:43:10;;;;;;;;;;;;;;;;;;5088031;28;20382;-84
2020/12/21 05:45:36;;;;;;;;;;;;;;;;;;5085696;28;20385;-84
2020/12/21 05:48:02;;;;;;;;;;;;;;;;;;5091781;28;20398;-84
2020/12/21 05:50:29;;;;;;;;;;;;;;;;;;5088272;28;20397;-84
2020/12/21 05:52:55;;;;;;;;;;;;;;;;;;5089828;28;20381;-84
2020/12/21 05:55:22;;;;;;;;;;;;;;;;;;5087472;28;20402;-85
2020/12/21 05:57:48;;;;;;;;;;;;;;;;;;5105030;28;20448;-84
2020/12/21 06:00:15;;;;;;;;;;;;;;;;;;5107304;28;20382;-84
2020/12/21 06:02:41;;;;;;;;;;;;;;;;;;5107368;28;20390;-84
2020/12/21 06:05:07;;;;;;;;;;;;;;;;;;5107179;28;20371;-84
2020/12/21 06:07:34;;;;;;;;;;;;;;;;;;5097204;28;20406;-84
2020/12/21 06:10:00;;;;;;;;;;;;;;;;;;5090579;28;20408;-84
2020/12/21 06:12:27;;;;;;;;;;;;;;;;;;5111623;28;20391;-84
2020/12/21 06:14:53;;;;;;;;;;;;;;;;;;5105648;28;20442;-84
2020/12/21 06:17:19;;;;;;;;;;;;;;;;;;5103665;28;20402;-84
2020/12/21 06:19:46;;;;;;;;;;;;;;;;;;5102170;28;20667;-83
2020/12/21 06:22:12;;;;;;;;;;;;;;;;;;5102545;28;20354;-83
2020/12/21 06:24:38;;;;;;;;;;;;;;;;;;5102995;28;20390;-83
2020/12/21 06:27:05;;;;;;;;;;;;;;;;;;5093112;28;20405;-84
2020/12/21 06:29:31;;;;;;;;;;;;;;;;;;5095622;28;20380;-85
2020/12/21 06:31:57;;;;;;;;;;;;;;;;;;5096873;28;20377;-84
2020/12/21 06:34:24;;;;;;;;;;;;;;;;;;5102020;28;20375;-84
2020/12/21 06:36:50;;;;;;;;;;;;;;;;;;5098317;28;20398;-84
2020/12/21 06:39:17;;;;;;;;;;;;;;;;;;5094397;28;20375;-83
2020/12/21 06:41:43;;;;;;;;;;;;;;;;;;5104852;28;20373;-84
2020/12/21 06:44:09;;;;;;;;;;;;;;;;;;5107928;28;20428;-84
2020/12/21 06:46:36;;;;;;;;;;;;;;;;;;5107385;28;20390;-84
2020/12/21 06:49:02;;;;;;;;;;;;;;;;;;5107658;28;20390;-85
2020/12/21 06:51:29;;;;;;;;;;;;;;;;;;5087946;28;20378;-85
2020/12/21 06:53:55;;;;;;;;;;;;;;;;;;5088542;28;20373;-85
2020/12/21 06:56:21;;;;;;;;;;;;;;;;;;5089572;28;20405;-85
2020/12/21 06:58:48;;;;;;;;;;;;;;;;;;5092659;28;20402;-85
2020/12/21 07:01:14;;;;;;;;;;;;;;;;;;5093180;28;20400;-85
2020/12/21 07:03:40;;;;;;;;;;;;;;;;;;5093884;28;20391;-85
2020/12/21 07:06:07;;;;;;;;;;;;;;;;;;5093708;28;20382;-85
2020/12/21 07:08:33;;;;;;;;;;;;;;;;;;5092781;28;20402;-85
2020/12/21 07:11:00;;;;;;;;;;;;;;;;;;5089397;28;20401;-84
2020/12/21 07:13:26;;;;;;;;;;;;;;;;;;5088240;28;20381;-84
2020/12/21 07:15:52;;;;;;;;;;;;;;;;;;5089002;28;20507;-85
2020/12/21 07:18:19;;;;;;;;;;;;;;;;;;5090200;28;20397;-85
2020/12/21 07:20:45;;;;;;;;;;;;;;;;;;5091059;28;20396;-86
2020/12/21 07:23:11;;;;;;;;;;;;;;;;;;5090744;28;20320;-85
2020/12/21 07:25:38;;;;;;;;;;;;;;;;;;5091490;28;20398;-86
2020/12/21 07:28:04;;;;;;;;;;;;;;;;;;5089898;28;20401;-85
2020/12/21 07:30:30;;;;;;;;;;;;;;;;;;5088107;28;20378;-85
2020/12/21 07:32:57;;;;;;;;;;;;;;;;;;5088664;28;20386;-86
2020/12/21 07:35:23;;;;;;;;;;;;;;;;;;5089418;28;20398;-86
2020/12/21 07:37:50;;;;;;;;;;;;;;;;;;5091902;28;20397;-84
2020/12/21 07:40:16;;;;;;;;;;;;;;;;;;5093112;28;20382;-84
2020/12/21 07:42:42;;;;;;;;;;;;;;;;;;5092853;28;20412;-85
2020/12/21 07:45:09;;;;;;;;;;;;;;;;;;5091467;28;20382;-84
2020/12/21 07:47:36;;;;;;;;;;;;;;;;;;5091202;28;20892;-85
2020/12/21 07:50:02;;;;;;;;;;;;;;;;;;5093850;28;20404;-85
2020/12/21 07:52:28;;;;;;;;;;;;;;;;;;5099014;28;20392;-85
2020/12/21 07:54:55;;;;;;;;;;;;;;;;;;5091339;28;20401;-84
2020/12/21 07:57:25;;;;;;;;;;;;;;;;;;5086912;28;20413;-85
2020/12/21 07:59:51;;;;;;;;;;;;;;;;;;5087367;28;20382;-84
2020/12/21 08:02:17;;;;;;;;;;;;;;;;;;5105710;28;20375;-85
2020/12/21 08:04:44;;;;;;;;;;;;;;;;;;5107176;28;20389;-84
2020/12/21 08:07:10;;;;;;;;;;;;;;;;;;5097359;28;20404;-85
2020/12/21 08:09:37;;;;;;;;;;;;;;;;;;5111007;28;20859;-84
2020/12/21 08:12:04;;;;;;;;;;;;;;;;;;5122249;28;20911;-86
2020/12/21 08:14:30;;;;;;;;;;;;;;;;;;5090745;28;20442;-86
2020/12/21 08:16:57;;;;;;;;;;;;;;;;;;5098260;28;20396;-85
2020/12/21 08:19:23;;;;;;;;;;;;;;;;;;5101226;28;20823;-85
2020/12/21 08:21:49;;;;;;;;;;;;;;;;;;5094224;28;20381;-87
2020/12/21 08:24:16;;;;;;;;;;;;;;;;;;5094755;28;20377;-84
2020/12/21 08:26:42;;;;;;;;;;;;;;;;;;5101902;28;20732;-84
2020/12/21 08:29:08;;;;;;;;;;;;;;;;;;5089551;28;20385;-83
2020/12/21 08:31:35;;;;;;;;;;;;;;;;;;5087106;28;20386;-81
2020/12/21 08:34:01;;;;;;;;;;;;;;;;;;5078962;28;20806;-81
2020/12/21 08:36:28;;;;;;;;;;;;;;;;;;5090983;28;20407;-81
2020/12/21 08:38:54;;;;;;;;;;;;;;;;;;5110900;28;20401;-81
2020/12/21 08:41:20;;;;;;;;;;;;;;;;;;5087417;28;20386;-83
2020/12/21 08:43:47;;;;;;;;;;;;;;;;;;5127490;28;20387;-82
2020/12/21 08:46:13;;;;;;;;;;;;;;;;;;5110495;28;20382;-83
2020/12/21 08:48:40;;;;;;;;;;;;;;;;;;5110841;28;20400;-83
2020/12/21 08:51:06;;;;;;;;;;;;;;;;;;5119543;28;20375;-81
2020/12/21 08:53:32;;;;;;;;;;;;;;;;;;5113423;28;20381;-80
2020/12/21 08:55:59;;;;;;;;;;;;;;;;;;5112506;28;20399;-80
2020/12/21 08:58:25;;;;;;;;;;;;;;;;;;5113504;28;20403;-83
2020/12/21 09:00:51;;;;;;;;;;;;;;;;;;5111701;28;20396;-83
2020/12/21 09:03:18;;;;;;;;;;;;;;;;;;5096457;28;20392;-82
2020/12/21 09:05:44;;;;;;;;;;;;;;;;;;5084786;28;20478;-83
2020/12/21 09:08:11;;;;;;;;;;;;;;;;;;5105065;28;20868;-82
2020/12/21 09:10:37;;;;;;;;;;;;;;;;;;5115888;28;20380;-82
2020/12/21 09:13:03;;;;;;;;;;;;;;;;;;5098299;28;20379;-82
2020/12/21 09:15:30;;;;;;;;;;;;;;;;;;5098774;28;20684;-82
2020/12/21 09:17:56;;;;;;;;;;;;;;;;;;5098139;28;20394;-81
2020/12/21 09:20:22;;;;;;;;;;;;;;;;;;5106744;28;20387;-82
2020/12/21 09:22:49;;;;;;;;;;;;;;;;;;5102582;28;20401;-82
2020/12/21 09:25:16;;;;;;;;;;;;;;;;;;5099464;28;20398;-82
2020/12/21 09:27:42;;;;;;;;;;;;;;;;;;5102830;28;20395;-82
2020/12/21 09:30:09;;;;;;;;;;;;;;;;;;5093686;28;20378;-83
2020/12/21 09:32:35;;;;;;;;;;;;;;;;;;5102374;28;20375;-83
2020/12/21 09:35:01;;;;;;;;;;;;;;;;;;5110503;28;20393;-83
2020/12/21 09:37:28;;;;;;;;;;;;;;;;;;5092150;28;20398;-82
2020/12/21 09:39:54;;;;;;;;;;;;;;;;;;5086441;28;20375;-81
2020/12/21 09:42:21;;;;;;;;;;;;;;;;;;5094123;28;20383;-84
2020/12/21 09:44:50;;;;;;;;;;;;;;;;;;5105790;28;20364;-84
2020/12/21 09:47:16;;;;;;;;;;;;;;;;;;5101972;28;20400;-83
2020/12/21 09:49:42;;;;;;;;;;;;;;;;;;5089202;28;20375;-83
2020/12/21 09:52:09;;;;;;;;;;;;;;;;;;5114020;28;20403;-84
2020/12/21 09:54:35;;;;;;;;;;;;;;;;;;5082668;28;20385;-83
2020/12/21 09:57:02;;;;;;;;;;;;;;;;;;5098550;28;20394;-84
2020/12/21 09:59:28;;;;;;;;;;;;;;;;;;5088020;28;20481;-84
2020/12/21 10:01:54;;;;;;;;;;;;;;;;;;5088386;28;20378;-84
2020/12/21 10:04:21;;;;;;;;;;;;;;;;;;5098975;28;20391;-83
2020/12/21 10:06:47;;;;;;;;;;;;;;;;;;5095354;28;20398;-83
2020/12/21 10:09:13;;;;;;;;;;;;;;;;;;5097595;28;20375;-83
2020/12/21 10:11:40;;;;;;;;;;;;;;;;;;5085143;28;20381;-85
2020/12/21 10:14:06;;;;;;;;;;;;;;;;;;5078222;28;20378;-83
2020/12/21 10:16:33;;;;;;;;;;;;;;;;;;5079356;28;20390;-83
2020/12/21 10:18:59;;;;;;;;;;;;;;;;;;5078476;28;20382;-82
2020/12/21 10:21:25;;;;;;;;;;;;;;;;;;5094526;28;20383;-82
2020/12/21 10:23:52;;;;;;;;;;;;;;;;;;5098377;28;20375;-82
2020/12/21 10:26:18;;;;;;;;;;;;;;;;;;5096614;28;20398;-82
2020/12/21 10:28:44;;;;;;;;;;;;;;;;;;5097631;28;20475;-83
2020/12/21 10:31:11;;;;;;;;;;;;;;;;;;5083469;28;20384;-83
2020/12/21 10:33:37;;;;;;;;;;;;;;;;;;5077950;28;20388;-82
2020/12/21 10:36:04;;;;;;;;;;;;;;;;;;5086673;28;20429;-82
2020/12/21 10:38:31;;;;;;;;;;;;;;;;;;5097964;28;20391;-83
2020/12/21 10:40:57;;;;;;;;;;;;;;;;;;5087329;28;20397;-83
2020/12/21 10:43:24;;;;;;;;;;;;;;;;;;5078708;28;20765;-82
2020/12/21 10:45:50;;;;;;;;;;;;;;;;;;5088464;28;20379;-83
2020/12/21 10:48:17;;;;;;;;;;;;;;;;;;5086482;28;20406;-83
2020/12/21 10:50:43;;;;;;;;;;;;;;;;;;5098175;28;20420;-83
2020/12/21 10:53:09;;;;;;;;;;;;;;;;;;5106651;28;20383;-82
2020/12/21 10:55:36;;;;;;;;;;;;;;;;;;5106594;28;20395;-83
2020/12/21 10:58:02;;;;;;;;;;;;;;;;;;5095788;28;20395;-83
2020/12/21 11:00:28;;;;;;;;;;;;;;;;;;5098242;28;20383;-83
2020/12/21 11:02:58;;;;;;;;;;;;;;;;;;5091721;28;20378;-84
2020/12/21 11:05:24;;;;;;;;;;;;;;;;;;5081647;28;20383;-83
2020/12/21 11:07:51;;;;;;;;;;;;;;;;;;5090330;28;20882;-83
2020/12/21 11:10:17;;;;;;;;;;;;;;;;;;5101068;28;20375;-85
2020/12/21 11:12:45;;;;;;;;;;;;;;;;;;5088940;28;26075;-83
2020/12/21 11:15:11;;;;;;;;;;;;;;;;;;5093876;28;20365;-83
2020/12/21 11:17:37;;;;;;;;;;;;;;;;;;5089135;28;20830;-83
2020/12/21 11:20:04;;;;;;;;;;;;;;;;;;5081339;28;20146;-83
2020/12/21 11:22:30;;;;;;;;;;;;;;;;;;5098568;28;19941;-83
2020/12/21 11:24:57;;;;;;;;;;;;;;;;;;5101762;28;20390;-84
2020/12/21 11:27:23;;;;;;;;;;;;;;;;;;5100719;28;20360;-84
2020/12/21 11:29:53;;;;;;;;;;;;;;;;;;5094442;28;19974;-86
2020/12/21 11:32:19;;;;;;;;;;;;;;;;;;5081611;28;19920;-83
2020/12/21 11:34:45;;;;;;;;;;;;;;;;;;5081172;28;19920;-83
2020/12/21 11:37:12;;;;;;;;;;;;;;;;;;5082658;28;19973;-83
2020/12/21 11:39:38;;;;;;;;;;;;;;;;;;5080439;28;19973;-83
2020/12/21 11:42:05;;;;;;;;;;;;;;;;;;5099070;28;19932;-83
2020/12/21 11:44:31;;;;;;;;;;;;;;;;;;5081799;28;19927;-82
2020/12/21 11:46:57;;;;;;;;;;;;;;;;;;5098148;28;19938;-83
2020/12/21 11:49:24;;;;;;;;;;;;;;;;;;5098983;28;19966;-83
2020/12/21 11:51:50;;;;;;;;;;;;;;;;;;5100280;28;19920;-82
2020/12/21 11:54:17;;;;;;;;;;;;;;;;;;5099713;28;19920;-83
2020/12/21 11:56:43;;;;;;;;;;;;;;;;;;5099393;28;19920;-83
2020/12/21 11:59:09;;;;;;;;;;;;;;;;;;5099580;28;19927;-83
2020/12/21 12:01:36;;;;;;;;;;;;;;;;;;5099443;28;20392;-83
2020/12/21 12:04:02;;;;;;;;;;;;;;;;;;5116356;28;19911;-84
2020/12/21 12:06:28;;;;;;;;;;;;;;;;;;5106047;28;20261;-84
2020/12/21 12:09:02;;;;;;;;;;;;;;;;;;5094571;28;19943;-84
2020/12/21 12:11:28;;;;;;;;;;;;;;;;;;5102435;28;19920;-87
2020/12/21 12:13:55;;;;;;;;;;;;;;;;;;5105373;28;19920;-84
2020/12/21 12:16:21;;;;;;;;;;;;;;;;;;5102767;28;20011;-84
2020/12/21 12:18:48;;;;;;;;;;;;;;;;;;5102260;28;19924;-84
2020/12/21 12:21:14;;;;;;;;;;;;;;;;;;5103869;28;19927;-84
2020/12/21 12:23:41;;;;;;;;;;;;;;;;;;5113601;28;19927;-84
2020/12/21 12:26:07;;;;;;;;;;;;;;;;;;5110874;28;19920;-83
2020/12/21 12:28:33;;;;;;;;;;;;;;;;;;5108713;28;19919;-83
2020/12/21 12:31:00;;;;;;;;;;;;;;;;;;5100055;28;19927;-84
2020/12/21 12:33:26;;;;;;;;;;;;;;;;;;5100523;28;19920;-83
2020/12/21 12:35:53;;;;;;;;;;;;;;;;;;5099957;28;19946;-84
2020/12/21 12:38:19;;;;;;;;;;;;;;;;;;5086417;28;19924;-84
2020/12/21 12:40:45;;;;;;;;;;;;;;;;;;5085425;28;19920;-85
2020/12/21 12:43:12;;;;;;;;;;;;;;;;;;5082395;28;19920;-85
2020/12/21 12:45:38;;;;;;;;;;;;;;;;;;5085081;28;19920;-84
2020/12/21 12:48:05;;;;;;;;;;;;;;;;;;5093039;28;20365;-84
2020/12/21 12:50:31;;;;;;;;;;;;;;;;;;5080409;28;19928;-84
2020/12/21 12:52:57;;;;;;;;;;;;;;;;;;5080629;28;19931;-83
2020/12/21 12:55:24;;;;;;;;;;;;;;;;;;5085304;28;19927;-84
2020/12/21 12:57:50;;;;;;;;;;;;;;;;;;5086741;28;19928;-83
2020/12/21 13:00:17;;;;;;;;;;;;;;;;;;5079753;28;19920;-82
2020/12/21 13:02:43;;;;;;;;;;;;;;;;;;5088790;28;19927;-83
2020/12/21 13:05:09;;;;;;;;;;;;;;;;;;5102328;28;19920;-84
2020/12/21 13:07:36;;;;;;;;;;;;;;;;;;5102242;28;19920;-84
2020/12/21 13:10:02;;;;;;;;;;;;;;;;;;5104967;28;19920;-84
2020/12/21 13:12:28;;;;;;;;;;;;;;;;;;5102729;28;19920;-84
2020/12/21 13:14:55;;;;;;;;;;;;;;;;;;5101548;28;19920;-84
2020/12/21 13:17:21;;;;;;;;;;;;;;;;;;5102139;28;19942;-84
2020/12/21 13:19:48;;;;;;;;;;;;;;;;;;5103385;28;19924;-84
2020/12/21 13:22:14;;;;;;;;;;;;;;;;;;5101649;28;19920;-84
2020/12/21 13:24:40;;;;;;;;;;;;;;;;;;5101977;28;19920;-84
2020/12/21 13:27:07;;;;;;;;;;;;;;;;;;5102770;28;19927;-84
2020/12/21 13:29:33;;;;;;;;;;;;;;;;;;5101989;28;19920;-84
2020/12/21 13:32:00;;;;;;;;;;;;;;;;;;5102257;28;19963;-84
2020/12/21 13:34:26;;;;;;;;;;;;;;;;;;5102778;28;19920;-84
2020/12/21 13:36:54;;;;;;;;;;;;;;;;;;5101444;28;19927;-84
2020/12/21 13:39:21;;;;;;;;;;;;;;;;;;5098613;28;19947;-83
2020/12/21 13:41:47;;;;;;;;;;;;;;;;;;5099855;28;19920;-83
2020/12/21 13:44:13;;;;;;;;;;;;;;;;;;5100040;28;19941;-84
2020/12/21 13:46:40;;;;;;;;;;;;;;;;;;5099698;28;19927;-84
2020/12/21 13:49:06;;;;;;;;;;;;;;;;;;5100400;28;19953;-83
2020/12/21 13:51:32;;;;;;;;;;;;;;;;;;5097207;28;19966;-84
2020/12/21 13:53:59;;;;;;;;;;;;;;;;;;5091249;28;19920;-83
2020/12/21 13:56:25;;;;;;;;;;;;;;;;;;5097805;28;19920;-83
2020/12/21 13:58:51;;;;;;;;;;;;;;;;;;5097464;28;19934;-84
2020/12/21 14:01:18;;;;;;;;;;;;;;;;;;5097758;28;20327;-83
2020/12/21 14:03:44;;;;;;;;;;;;;;;;;;5097023;28;19927;-83
2020/12/21 14:06:12;;;;;;;;;;;;;;;;;;5097986;28;19920;-83
2020/12/21 14:08:38;;;;;;;;;;;;;;;;;;5087079;28;19942;-84
2020/12/21 14:11:05;;;;;;;;;;;;;;;;;;5098833;28;19909;-84
2020/12/21 14:13:33;;;;;;;;;;;;;;;;;;5080856;28;19920;-84
2020/12/21 14:15:59;;;;;;;;;;;;;;;;;;5097041;28;20018;-84
2020/12/21 14:18:26;;;;;;;;;;;;;;;;;;5100623;28;19920;-84
2020/12/21 14:20:52;;;;;;;;;;;;;;;;;;5091754;28;19991;-82
2020/12/21 14:23:19;;;;;;;;;;;;;;;;;;5089970;28;19978;-84
2020/12/21 14:25:45;;;;;;;;;;;;;;;;;;5100537;28;19920;-83
2020/12/21 14:28:12;;;;;;;;;;;;;;;;;;5097616;28;20034;-84
2020/12/21 14:30:38;;;;;;;;;;;;;;;;;;5099657;28;19974;-84
2020/12/21 14:33:05;;;;;;;;;;;;;;;;;;5100810;28;19920;-83
2020/12/21 14:35:31;;;;;;;;;;;;;;;;;;5104792;28;19920;-83
2020/12/21 14:37:57;;;;;;;;;;;;;;;;;;5120729;28;20013;-83
2020/12/21 14:40:24;;;;;;;;;;;;;;;;;;5120123;28;19924;-84
2020/12/21 14:42:50;;;;;;;;;;;;;;;;;;5120415;28;19972;-83
2020/12/21 14:45:17;;;;;;;;;;;;;;;;;;5116278;28;20367;-83
2020/12/21 14:47:43;;;;;;;;;;;;;;;;;;5099148;28;19949;-84
2020/12/21 14:50:10;;;;;;;;;;;;;;;;;;5100005;28;19931;-83
2020/12/21 14:52:36;;;;;;;;;;;;;;;;;;5099399;28;19920;-84
2020/12/21 14:55:02;;;;;;;;;;;;;;;;;;5086088;28;19928;-82
2020/12/21 14:57:29;;;;;;;;;;;;;;;;;;5078919;28;20487;-83
2020/12/21 14:59:55;;;;;;;;;;;;;;;;;;5094284;28;19998;-83
2020/12/21 15:02:21;;;;;;;;;;;;;;;;;;5103254;28;19965;-83
2020/12/21 15:04:48;;;;;;;;;;;;;;;;;;5102758;28;20455;-83
2020/12/21 15:07:14;;;;;;;;;;;;;;;;;;5101764;28;19991;-83
2020/12/21 15:09:41;;;;;;;;;;;;;;;;;;5083867;28;19924;-81
2020/12/21 15:12:07;;;;;;;;;;;;;;;;;;5100427;28;19927;-85
2020/12/21 15:14:34;;;;;;;;;;;;;;;;;;5104357;28;20042;-82
2020/12/21 15:17:00;;;;;;;;;;;;;;;;;;5094169;28;19958;-83
2020/12/21 15:19:27;;;;;;;;;;;;;;;;;;5085269;28;19990;-83
2020/12/21 15:21:54;;;;;;;;;;;;;;;;;;5083384;28;19991;-84
2020/12/21 15:24:20;;;;;;;;;;;;;;;;;;5083638;28;19975;-83
2020/12/21 15:26:46;;;;;;;;;;;;;;;;;;5092406;28;19982;-83
2020/12/21 15:29:15;;;;;;;;;;;;;;;;;;5115397;28;19991;-83
2020/12/21 15:31:42;;;;;;;;;;;;;;;;;;5119472;28;19997;-85
2020/12/21 15:34:09;;;;;;;;;;;;;;;;;;5105548;28;19949;-82
2020/12/21 15:36:35;;;;;;;;;;;;;;;;;;5082580;28;19920;-82
2020/12/21 15:39:01;;;;;;;;;;;;;;;;;;5083303;28;19963;-83
2020/12/21 15:41:28;;;;;;;;;;;;;;;;;;5094677;28;19975;-84
2020/12/21 15:43:54;;;;;;;;;;;;;;;;;;5102821;28;19971;-83
2020/12/21 15:46:20;;;;;;;;;;;;;;;;;;5101789;28;19974;-83
2020/12/21 15:48:47;;;;;;;;;;;;;;;;;;5102295;28;19932;-83
2020/12/21 15:51:13;;;;;;;;;;;;;;;;;;5099889;28;19999;-82
2020/12/21 15:53:40;;;;;;;;;;;;;;;;;;5101017;28;20010;-83
2020/12/21 15:56:06;;;;;;;;;;;;;;;;;;5095569;28;19983;-82
2020/12/21 15:58:32;;;;;;;;;;;;;;;;;;5108612;28;19927;-83
2020/12/21 16:00:59;;;;;;;;;;;;;;;;;;5097914;28;19942;-83
2020/12/21 16:03:25;;;;;;;;;;;;;;;;;;5101994;28;20003;-83
2020/12/21 16:05:52;;;;;;;;;;;;;;;;;;5094863;28;19943;-83
2020/12/21 16:08:18;;;;;;;;;;;;;;;;;;5087992;28;20044;-83
2020/12/21 16:10:44;;;;;;;;;;;;;;;;;;5098701;28;19971;-83
2020/12/21 16:13:11;;;;;;;;;;;;;;;;;;5100530;28;20032;-83
2020/12/21 16:15:37;;;;;;;;;;;;;;;;;;5086034;28;20069;-83
2020/12/21 16:18:03;;;;;;;;;;;;;;;;;;5091889;28;20026;-82
2020/12/21 16:20:30;;;;;;;;;;;;;;;;;;5094540;28;20048;-83
2020/12/21 16:22:56;;;;;;;;;;;;;;;;;;5091968;28;20351;-84
2020/12/21 16:25:23;;;;;;;;;;;;;;;;;;5101877;28;20009;-83
2020/12/21 16:27:49;;;;;;;;;;;;;;;;;;5101461;28;20022;-84
2020/12/21 16:30:16;;;;;;;;;;;;;;;;;;5093017;28;19975;-84
2020/12/21 16:32:42;;;;;;;;;;;;;;;;;;5080122;28;20435;-86
2020/12/21 16:35:08;;;;;;;;;;;;;;;;;;5095611;28;19971;-84
2020/12/21 16:37:35;;;;;;;;;;;;;;;;;;5090145;28;19924;-84
2020/12/21 16:40:01;;;;;;;;;;;;;;;;;;5082776;28;19995;-84